createdAt,value
2018-05-16T00:00:34.842Z,14.20
2018-05-16T00:03:03.802Z,9.00
2018-05-16T00:05:33.907Z,14.33
2018-05-16T00:08:03.221Z,10.57
2018-05-16T00:10:32.805Z,11.40
2018-05-16T00:13:01.159Z,10.80
2018-05-16T00:15:30.773Z,7.97
2018-05-16T00:18:00.171Z,12.23
2018-05-16T00:20:29.278Z,14.93
2018-05-16T00:22:58.434Z,12.20
2018-05-16T00:25:27.555Z,9.57
2018-05-16T00:27:56.684Z,12.37
2018-05-16T00:30:24.979Z,14.10
2018-05-16T00:32:54.241Z,8.53
2018-05-16T00:35:23.330Z,16.40
2018-05-16T00:37:52.807Z,14.23
2018-05-16T00:40:22.450Z,10.80
2018-05-16T00:42:50.762Z,22.70
2018-05-16T00:45:19.106Z,13.33
2018-05-16T00:47:48.498Z,14.63
2018-05-16T00:50:20.409Z,13.77
2018-05-16T00:52:49.380Z,8.03
2018-05-16T00:55:18.793Z,18.90
2018-05-16T00:57:47.717Z,20.13
2018-05-16T01:00:16.090Z,11.30
2018-05-16T01:02:44.454Z,11.27
2018-05-16T01:05:13.673Z,13.93
2018-05-16T01:07:42.010Z,10.70
2018-05-16T01:10:11.228Z,10.07
2018-05-16T01:12:39.526Z,9.80
2018-05-16T01:15:08.986Z,9.80
2018-05-16T01:17:38.071Z,11.13
2018-05-16T01:20:06.383Z,11.07
2018-05-16T01:22:34.973Z,9.57
2018-05-16T01:25:03.688Z,11.73
2018-05-16T01:27:32.690Z,15.90
2018-05-16T01:30:01.052Z,20.43
2018-05-16T01:32:29.830Z,10.70
2018-05-16T01:34:58.828Z,13.87
2018-05-16T01:37:28.610Z,14.13
2018-05-16T01:39:57.900Z,8.20
2018-05-16T01:42:26.130Z,12.30
2018-05-16T01:44:55.415Z,10.63
2018-05-16T01:47:23.710Z,12.27
2018-05-16T01:49:52.708Z,7.63
2018-05-16T01:52:21.084Z,16.20
2018-05-16T01:54:49.968Z,20.33
2018-05-16T01:57:19.056Z,23.67
2018-05-16T01:59:47.890Z,13.93
2018-05-16T02:02:16.324Z,17.30
2018-05-16T02:04:44.625Z,13.70
2018-05-16T02:07:12.918Z,12.70
2018-05-16T02:09:41.901Z,12.10
2018-05-16T02:12:10.636Z,14.20
2018-05-16T02:14:39.783Z,11.87
2018-05-16T02:17:09.176Z,18.00
2018-05-16T02:19:38.242Z,12.73
2018-05-16T02:22:07.340Z,11.70
2018-05-16T02:24:35.642Z,19.70
2018-05-16T02:27:03.933Z,14.13
2018-05-16T02:29:33.022Z,24.93
2018-05-16T02:32:01.324Z,10.70
2018-05-16T02:34:29.821Z,9.00
2018-05-16T02:36:58.895Z,21.77
2018-05-16T02:39:27.191Z,13.30
2018-05-16T02:41:55.489Z,16.20
2018-05-16T02:44:24.556Z,16.10
2018-05-16T02:46:53.706Z,16.23
2018-05-16T02:49:22.009Z,21.20
2018-05-16T02:51:50.409Z,13.07
2018-05-16T02:54:18.948Z,19.93
2018-05-16T02:56:47.665Z,19.50
2018-05-16T02:59:16.356Z,12.73
2018-05-16T03:01:44.943Z,11.10
2018-05-16T03:04:13.317Z,14.90
2018-05-16T03:06:41.638Z,15.60
2018-05-16T03:09:10.737Z,12.93
2018-05-16T03:11:39.800Z,15.40
2018-05-16T03:14:08.141Z,11.37
2018-05-16T03:16:36.630Z,11.73
2018-05-16T03:19:05.220Z,12.17
2018-05-16T03:21:35.210Z,14.87
2018-05-16T03:24:04.274Z,12.20
2018-05-16T03:26:32.858Z,11.40
2018-05-16T03:29:01.160Z,9.60
2018-05-16T03:31:30.303Z,9.13
2018-05-16T03:33:58.559Z,17.30
2018-05-16T03:36:26.868Z,9.50
2018-05-16T03:38:56.443Z,8.77
2018-05-16T03:41:24.791Z,10.57
2018-05-16T03:43:54.890Z,9.23
2018-05-16T03:46:23.875Z,10.90
2018-05-16T03:48:52.166Z,17.20
2018-05-16T03:51:21.293Z,8.37
2018-05-16T03:53:50.998Z,11.00
2018-05-16T03:56:20.813Z,15.97
2018-05-16T03:59:07.557Z,15.80
2018-05-16T04:01:53.579Z,16.07
2018-05-16T04:04:21.896Z,11.23
2018-05-16T04:06:50.957Z,12.03
2018-05-16T04:09:19.334Z,23.33
2018-05-16T04:11:47.707Z,11.67
2018-05-16T04:14:16.102Z,12.80
2018-05-16T04:16:44.418Z,10.07
2018-05-16T04:19:13.703Z,10.00
2018-05-16T04:21:43.650Z,16.50
2018-05-16T04:24:12.698Z,13.70
2018-05-16T04:26:41.081Z,11.47
2018-05-16T04:29:09.737Z,18.90
2018-05-16T04:31:38.135Z,12.20
2018-05-16T04:34:06.433Z,25.47
2018-05-16T04:36:34.754Z,10.43
2018-05-16T04:39:03.152Z,17.07
2018-05-16T04:41:31.969Z,17.13
2018-05-16T04:44:01.830Z,11.30
2018-05-16T04:46:30.906Z,20.43
2018-05-16T04:48:59.205Z,17.37
2018-05-16T04:51:28.548Z,11.33
2018-05-16T04:53:57.661Z,15.30
2018-05-16T04:56:25.951Z,10.90
2018-05-16T04:58:55.162Z,16.57
2018-05-16T05:01:25.157Z,13.40
2018-05-16T05:03:53.451Z,15.27
2018-05-16T05:06:23.279Z,18.10
2018-05-16T05:08:52.547Z,13.07
2018-05-16T05:11:21.557Z,12.77
2018-05-16T05:13:50.739Z,17.87
2018-05-16T05:16:19.059Z,17.17
2018-05-16T05:18:47.872Z,14.67
2018-05-16T05:21:16.329Z,25.17
2018-05-16T05:23:45.482Z,12.27
2018-05-16T05:26:14.490Z,17.93
2018-05-16T05:28:43.031Z,12.90
2018-05-16T05:31:12.016Z,14.20
2018-05-16T05:33:40.358Z,12.73
2018-05-16T05:36:09.533Z,14.60
2018-05-16T05:38:37.868Z,28.13
2018-05-16T05:41:06.177Z,12.33
2018-05-16T05:43:34.945Z,21.37
2018-05-16T05:46:04.054Z,10.30
2018-05-16T05:48:32.529Z,16.23
2018-05-16T05:51:02.277Z,16.07
2018-05-16T05:53:30.570Z,15.50
2018-05-16T05:55:59.751Z,14.70
2018-05-16T05:58:28.040Z,20.03
2018-05-16T06:00:56.786Z,18.20
2018-05-16T06:03:25.192Z,12.53
2018-05-16T06:05:54.296Z,14.90
2018-05-16T06:08:23.567Z,12.77
2018-05-16T06:10:52.074Z,17.63
2018-05-16T06:13:20.892Z,16.40
2018-05-16T06:15:49.983Z,11.37
2018-05-16T06:18:18.329Z,15.13
2018-05-16T06:20:46.839Z,14.63
2018-05-16T06:23:15.960Z,11.87
2018-05-16T06:25:44.326Z,19.80
2018-05-16T06:28:14.137Z,11.90
2018-05-16T06:30:43.092Z,13.70
2018-05-16T06:33:11.404Z,20.20
2018-05-16T06:35:40.540Z,14.87
2018-05-16T06:38:09.069Z,12.63
2018-05-16T06:40:38.091Z,14.43
2018-05-16T06:43:07.156Z,10.37
2018-05-16T06:45:35.580Z,15.93
2018-05-16T06:48:04.670Z,13.00
2018-05-16T06:50:33.722Z,16.07
2018-05-16T06:53:02.070Z,11.63
2018-05-16T06:55:30.380Z,8.77
2018-05-16T06:57:59.338Z,21.07
2018-05-16T07:00:29.095Z,13.80
2018-05-16T07:02:57.419Z,11.33
2018-05-16T07:05:26.599Z,10.73
2018-05-16T07:07:55.393Z,11.60
2018-05-16T07:10:25.476Z,11.80
2018-05-16T07:12:53.778Z,7.70
2018-05-16T07:15:22.070Z,17.10
2018-05-16T07:17:50.726Z,10.60
2018-05-16T07:20:19.023Z,13.07
2018-05-16T07:22:47.353Z,11.60
2018-05-16T07:25:16.054Z,14.07
2018-05-16T07:27:44.863Z,13.93
2018-05-16T07:30:13.892Z,8.00
2018-05-16T07:32:43.256Z,11.63
2018-05-16T07:35:13.082Z,13.90
2018-05-16T07:37:42.139Z,9.57
2018-05-16T07:40:10.413Z,9.40
2018-05-16T07:42:38.737Z,20.83
2018-05-16T07:45:07.311Z,11.57
2018-05-16T07:47:35.957Z,10.43
2018-05-16T07:50:04.260Z,7.97
2018-05-16T07:52:32.661Z,12.70
2018-05-16T07:55:02.039Z,13.30
2018-05-16T07:57:30.438Z,7.67
2018-05-16T07:59:58.722Z,8.03
2018-05-16T08:02:27.334Z,10.60
2018-05-16T08:04:56.809Z,13.73
2018-05-16T08:07:25.921Z,11.33
2018-05-16T08:09:54.997Z,21.80
2018-05-16T08:12:23.319Z,14.57
2018-05-16T08:14:52.744Z,10.80
2018-05-16T08:17:21.730Z,11.70
2018-05-16T08:19:50.855Z,6.70
2018-05-16T08:22:19.416Z,16.63
2018-05-16T08:24:48.303Z,8.73
2018-05-16T08:27:16.737Z,12.97
2018-05-16T08:29:45.554Z,14.33
2018-05-16T08:32:15.367Z,8.83
2018-05-16T08:34:45.149Z,11.00
2018-05-16T08:37:13.451Z,19.73
2018-05-16T08:39:41.806Z,9.90
2018-05-16T08:42:10.631Z,9.17
2018-05-16T08:44:39.700Z,17.57
2018-05-16T08:47:08.578Z,13.70
2018-05-16T08:49:37.076Z,9.23
2018-05-16T08:52:05.382Z,9.33
2018-05-16T08:54:34.634Z,7.23
2018-05-16T08:57:04.421Z,14.50
2018-05-16T08:59:33.432Z,15.87
2018-05-16T09:02:01.827Z,11.33
2018-05-16T09:04:30.924Z,9.03
2018-05-16T09:06:59.817Z,11.77
2018-05-16T09:09:28.810Z,10.40
2018-05-16T09:11:57.617Z,10.93
2018-05-16T09:14:25.953Z,11.47
2018-05-16T09:16:55.946Z,11.20
2018-05-16T09:19:25.420Z,8.40
2018-05-16T09:21:54.101Z,10.33
2018-05-16T09:24:22.413Z,9.80
2018-05-16T09:26:50.950Z,13.33
2018-05-16T09:29:19.388Z,12.63
2018-05-16T09:31:48.453Z,12.10
2018-05-16T09:34:18.341Z,11.57
2018-05-16T09:36:47.385Z,7.93
2018-05-16T09:39:17.142Z,7.40
2018-05-16T09:41:45.651Z,20.73
2018-05-16T09:44:15.002Z,8.90
2018-05-16T09:46:43.719Z,12.70
2018-05-16T09:49:12.560Z,8.73
2018-05-16T09:51:41.710Z,9.37
2018-05-16T09:54:10.034Z,16.00
2018-05-16T09:56:39.740Z,7.10
2018-05-16T09:59:08.937Z,8.70
2018-05-16T10:01:37.969Z,6.87
2018-05-16T10:04:06.420Z,9.77
2018-05-16T10:06:34.786Z,6.30
2018-05-16T10:09:03.345Z,8.73
2018-05-16T10:11:31.631Z,16.03
2018-05-16T10:14:00.174Z,9.83
2018-05-16T10:16:29.024Z,5.87
2018-05-16T10:18:57.384Z,5.03
2018-05-16T10:21:25.961Z,10.17
2018-05-16T10:23:54.783Z,6.17
2018-05-16T10:26:24.654Z,9.17
2018-05-16T10:28:52.963Z,7.90
2018-05-16T10:31:21.595Z,13.17
2018-05-16T10:33:49.961Z,7.50
2018-05-16T10:36:19.045Z,9.10
2018-05-16T10:38:48.145Z,12.10
2018-05-16T10:41:17.256Z,6.40
2018-05-16T10:43:45.515Z,7.43
2018-05-16T10:46:14.809Z,13.40
2018-05-16T10:48:43.140Z,11.50
2018-05-16T10:51:11.434Z,8.97
2018-05-16T10:53:39.756Z,13.13
2018-05-16T10:56:09.337Z,7.70
2018-05-16T10:58:37.621Z,12.20
2018-05-16T11:01:05.958Z,7.43
2018-05-16T11:03:34.248Z,6.63
2018-05-16T11:06:02.545Z,6.37
2018-05-16T11:08:31.714Z,10.00
2018-05-16T11:11:00.504Z,9.20
2018-05-16T11:13:28.801Z,14.37
2018-05-16T11:15:57.105Z,5.43
2018-05-16T11:18:25.635Z,5.17
2018-05-16T11:20:53.949Z,6.50
2018-05-16T11:23:22.556Z,9.40
2018-05-16T11:25:51.315Z,13.20
2018-05-16T11:28:20.474Z,7.70
2018-05-16T11:30:49.591Z,21.77
2018-05-16T11:33:17.895Z,6.37
2018-05-16T11:35:46.245Z,10.33
2018-05-16T11:38:14.590Z,9.73
2018-05-16T11:40:43.797Z,9.17
2018-05-16T11:43:13.422Z,8.57
2018-05-16T11:45:41.759Z,15.47
2018-05-16T11:48:11.648Z,15.77
2018-05-16T11:50:40.054Z,8.33
2018-05-16T11:53:09.271Z,12.90
2018-05-16T11:55:38.341Z,7.63
2018-05-16T11:58:07.377Z,6.07
2018-05-16T12:00:36.562Z,11.23
2018-05-16T12:03:05.641Z,4.97
2018-05-16T12:05:33.943Z,4.47
2018-05-16T12:08:03.010Z,11.23
2018-05-16T12:10:31.352Z,7.90
2018-05-16T12:13:01.694Z,12.23
2018-05-16T12:15:29.997Z,7.10
2018-05-16T12:17:59.575Z,7.60
2018-05-16T12:20:28.104Z,5.63
2018-05-16T12:22:57.391Z,5.53
2018-05-16T12:25:26.245Z,6.70
2018-05-16T12:27:55.174Z,8.20
2018-05-16T12:30:23.485Z,10.10
2018-05-16T12:32:52.591Z,8.37
2018-05-16T12:35:20.887Z,16.20
2018-05-16T12:37:49.664Z,5.97
2018-05-16T12:40:18.342Z,8.93
2018-05-16T12:46:03.518Z,5.00
2018-05-16T12:48:33.452Z,7.70
2018-05-16T12:51:02.902Z,4.57
2018-05-16T12:53:32.101Z,17.83
2018-05-16T12:56:00.595Z,6.13
2018-05-16T12:58:29.064Z,7.83
2018-05-16T13:00:57.362Z,6.57
2018-05-16T13:03:25.661Z,9.03
2018-05-16T13:05:54.800Z,8.63
2018-05-16T13:08:23.114Z,8.50
2018-05-16T13:10:51.434Z,6.33
2018-05-16T13:13:21.711Z,6.00
2018-05-16T13:15:50.245Z,15.20
2018-05-16T13:18:18.519Z,8.10
2018-05-16T13:20:47.457Z,4.73
2018-05-16T13:23:16.378Z,5.80
2018-05-16T13:25:46.665Z,8.00
2018-05-16T13:28:14.954Z,4.70
2018-05-16T13:30:43.269Z,6.80
2018-05-16T13:33:12.803Z,5.43
2018-05-16T13:35:41.120Z,5.73
2018-05-16T13:38:09.702Z,5.70
2018-05-16T13:40:38.467Z,9.73
2018-05-16T13:43:06.765Z,10.73
2018-05-16T13:45:35.256Z,9.70
2018-05-16T13:48:03.920Z,5.80
2018-05-16T13:50:32.215Z,6.33
2018-05-16T13:53:00.524Z,4.97
2018-05-16T13:55:28.834Z,10.47
2018-05-16T13:57:57.153Z,4.17
2018-05-16T14:00:25.471Z,4.37
2018-05-16T14:02:54.797Z,4.63
2018-05-16T14:05:23.530Z,13.43
2018-05-16T14:07:51.861Z,10.90
2018-05-16T14:10:20.548Z,6.50
2018-05-16T14:12:48.840Z,6.70
2018-05-16T14:15:17.698Z,18.00
2018-05-16T14:17:45.973Z,8.07
2018-05-16T14:20:15.030Z,6.53
2018-05-16T14:22:43.332Z,14.83
2018-05-16T14:25:11.678Z,6.23
2018-05-16T14:27:40.142Z,8.80
2018-05-16T14:30:08.786Z,5.50
2018-05-16T14:32:38.156Z,6.47
2018-05-16T14:35:06.474Z,9.03
2018-05-16T14:37:36.589Z,4.07
2018-05-16T14:40:05.677Z,8.20
2018-05-16T14:42:34.317Z,4.50
2018-05-16T14:45:04.139Z,5.23
2018-05-16T14:47:32.441Z,7.10
2018-05-16T14:50:00.877Z,9.03
2018-05-16T14:52:29.770Z,4.10
2018-05-16T14:54:58.063Z,11.40
2018-05-16T14:57:26.365Z,9.43
2018-05-16T14:59:55.554Z,3.83
2018-05-16T15:02:23.965Z,5.33
2018-05-16T15:04:52.268Z,5.47
2018-05-16T15:07:21.429Z,6.07
2018-05-16T15:09:50.116Z,4.30
2018-05-16T15:12:19.098Z,4.57
2018-05-16T15:14:48.610Z,7.60
2018-05-16T15:17:16.990Z,5.00
2018-05-16T15:19:45.300Z,5.60
2018-05-16T15:22:14.502Z,6.83
2018-05-16T15:24:44.329Z,12.30
2018-05-16T15:27:13.489Z,4.30
2018-05-16T15:29:41.730Z,5.00
2018-05-16T15:32:10.103Z,14.93
2018-05-16T15:34:39.096Z,6.17
2018-05-16T15:37:08.091Z,6.53
2018-05-16T15:39:36.900Z,5.53
2018-05-16T15:42:05.730Z,4.10
2018-05-16T15:44:34.834Z,5.47
2018-05-16T15:47:03.896Z,6.37
2018-05-16T15:49:32.181Z,6.60
2018-05-16T15:52:01.566Z,6.67
2018-05-16T15:54:31.124Z,12.33
2018-05-16T15:57:01.007Z,3.97
2018-05-16T15:59:29.861Z,4.43
2018-05-16T16:01:58.484Z,11.03
2018-05-16T16:04:27.313Z,7.07
2018-05-16T16:06:57.263Z,7.83
2018-05-16T16:09:25.552Z,3.60
2018-05-16T16:11:53.973Z,4.20
2018-05-16T16:14:25.157Z,4.60
2018-05-16T16:16:53.503Z,4.67
2018-05-16T16:19:23.154Z,10.27
2018-05-16T16:21:51.445Z,6.90
2018-05-16T16:24:20.461Z,10.47
2018-05-16T16:26:48.789Z,11.23
2018-05-16T16:29:18.151Z,5.80
2018-05-16T16:31:47.263Z,8.23
2018-05-16T16:34:16.396Z,9.43
2018-05-16T16:36:45.541Z,9.00
2018-05-16T16:39:13.914Z,9.53
2018-05-16T16:41:42.551Z,7.33
2018-05-16T16:44:11.690Z,7.33
2018-05-16T16:46:40.444Z,6.10
2018-05-16T16:49:08.807Z,4.80
2018-05-16T16:51:37.934Z,5.73
2018-05-16T16:54:06.867Z,4.40
2018-05-16T16:56:35.196Z,5.27
2018-05-16T16:59:03.500Z,4.57
2018-05-16T17:01:33.601Z,5.47
2018-05-16T17:04:01.930Z,7.97
2018-05-16T17:06:30.276Z,10.27
2018-05-16T17:08:58.575Z,4.87
2018-05-16T17:11:26.910Z,6.47
2018-05-16T17:13:55.929Z,6.20
2018-05-16T17:16:24.877Z,7.83
2018-05-16T17:18:54.537Z,6.30
2018-05-16T17:21:23.366Z,8.67
2018-05-16T17:23:54.260Z,4.00
2018-05-16T17:26:23.559Z,10.20
2018-05-16T17:28:55.816Z,5.87
2018-05-16T17:31:27.773Z,7.97
2018-05-16T17:33:56.407Z,10.43
2018-05-16T17:36:25.555Z,17.40
2018-05-16T17:38:54.008Z,6.80
2018-05-16T17:41:23.781Z,3.77
2018-05-16T17:43:53.878Z,7.13
2018-05-16T17:46:22.355Z,12.63
2018-05-16T17:48:51.930Z,6.80
2018-05-16T17:51:21.911Z,6.93
2018-05-16T17:53:50.937Z,10.50
2018-05-16T17:56:19.253Z,8.43
2018-05-16T17:58:47.746Z,10.30
2018-05-16T18:01:17.959Z,6.33
2018-05-16T18:03:46.293Z,12.53
2018-05-16T18:06:15.492Z,8.10
2018-05-16T18:08:44.670Z,7.23
2018-05-16T18:11:13.419Z,21.13
2018-05-16T18:14:08.795Z,13.87
2018-05-16T18:19:51.815Z,11.70
2018-05-16T18:22:20.262Z,15.73
2018-05-16T18:24:48.803Z,37.23
2018-05-16T18:27:19.182Z,11.00
2018-05-16T18:29:47.987Z,19.60
2018-05-16T18:32:16.382Z,23.07
2018-05-16T18:34:44.761Z,13.93
2018-05-16T18:37:13.974Z,23.17
2018-05-16T18:39:42.538Z,17.67
2018-05-16T18:42:11.140Z,23.00
2018-05-16T18:44:39.494Z,17.10
2018-05-16T18:47:10.259Z,25.80
2018-05-16T18:49:38.791Z,23.77
2018-05-16T18:52:07.438Z,24.20
2018-05-16T18:54:36.521Z,19.80
2018-05-16T18:57:04.855Z,38.20
2018-05-16T18:59:34.150Z,14.47
2018-05-16T19:02:03.133Z,16.23
2018-05-16T19:04:32.045Z,19.43
2018-05-16T19:07:01.106Z,24.40
2018-05-16T19:09:30.339Z,19.03
2018-05-16T19:11:58.637Z,31.40
2018-05-16T19:14:27.952Z,19.20
2018-05-16T19:16:56.366Z,16.50
2018-05-16T19:19:25.928Z,19.00
2018-05-16T19:21:55.238Z,9.27
2018-05-16T19:24:23.865Z,19.90
2018-05-16T19:26:52.946Z,25.23
2018-05-16T19:29:21.889Z,24.57
2018-05-16T19:31:51.855Z,23.17
2018-05-16T19:34:20.488Z,14.07
2018-05-16T19:36:49.429Z,25.77
2018-05-16T19:39:20.038Z,17.23
2018-05-16T19:41:49.134Z,21.97
2018-05-16T19:44:17.449Z,18.23
2018-05-16T19:46:48.337Z,21.03
2018-05-16T19:49:19.020Z,26.30
2018-05-16T19:51:47.348Z,45.00
2018-05-16T19:54:16.288Z,18.63
2018-05-16T19:56:46.064Z,29.57
2018-05-16T19:59:15.849Z,17.57
2018-05-16T20:01:44.132Z,20.93
2018-05-16T20:04:12.807Z,28.60
2018-05-16T20:06:41.137Z,13.83
2018-05-16T20:09:10.532Z,30.43
2018-05-16T20:11:39.643Z,20.97
2018-05-16T20:14:07.978Z,18.17
2018-05-16T20:16:36.761Z,12.30
2018-05-16T20:19:05.690Z,16.87
2018-05-16T20:21:35.032Z,25.33
2018-05-16T20:24:04.134Z,20.43
2018-05-16T20:26:34.318Z,33.37
2018-05-16T20:29:04.114Z,22.10
2018-05-16T20:31:32.515Z,20.33
2018-05-16T20:34:00.906Z,18.70
2018-05-16T20:36:30.500Z,19.73
2018-05-16T20:38:59.760Z,16.30
2018-05-16T20:41:28.065Z,19.27
2018-05-16T20:43:57.063Z,21.17
2018-05-16T20:46:25.521Z,17.97
2018-05-16T20:48:54.659Z,17.73
2018-05-16T20:51:23.089Z,23.53
2018-05-16T20:53:51.482Z,21.33
2018-05-16T20:56:20.704Z,19.07
2018-05-16T20:58:49.684Z,22.97
2018-05-16T21:01:18.442Z,17.83
2018-05-16T21:03:47.595Z,22.83
2018-05-16T21:06:16.534Z,26.30
2018-05-16T21:08:44.864Z,13.67
2018-05-16T21:11:14.273Z,25.10
2018-05-16T21:13:43.043Z,13.40
2018-05-16T21:16:11.667Z,28.67
2018-05-16T21:18:40.737Z,21.27
2018-05-16T21:21:09.282Z,24.87
2018-05-16T21:23:37.675Z,26.17
2018-05-16T21:26:06.383Z,16.10
2018-05-16T21:28:34.817Z,18.17
2018-05-16T21:31:03.862Z,30.63
2018-05-16T21:33:32.161Z,23.10
2018-05-16T21:36:00.496Z,21.83
2018-05-16T21:38:29.321Z,17.13
2018-05-16T21:40:57.609Z,21.40
2018-05-16T21:43:26.173Z,33.37
2018-05-16T21:45:55.281Z,28.07
2018-05-16T21:48:23.759Z,20.23
2018-05-16T21:50:52.059Z,29.87
2018-05-16T21:53:21.110Z,29.83
2018-05-16T21:55:49.769Z,27.00
2018-05-16T21:58:18.203Z,20.57
2018-05-16T22:00:47.134Z,32.30
2018-05-16T22:03:16.199Z,25.17
2018-05-16T22:05:44.573Z,29.80
2018-05-16T22:08:13.670Z,26.47
2018-05-16T22:10:43.528Z,32.83
2018-05-16T22:13:11.822Z,26.33
2018-05-16T22:15:40.138Z,24.93
2018-05-16T22:18:08.467Z,24.40
2018-05-16T22:20:37.261Z,15.03
2018-05-16T22:23:06.368Z,15.10
2018-05-16T22:25:35.238Z,23.93
2018-05-16T22:28:04.319Z,27.53
2018-05-16T22:30:39.421Z,23.67
2018-05-16T22:33:13.287Z,29.33
2018-05-16T22:35:47.119Z,24.67
2018-05-16T22:38:22.594Z,33.87
2018-05-16T22:40:56.471Z,31.43
2018-05-16T22:43:24.770Z,30.67
2018-05-16T22:45:55.240Z,33.60
2018-05-16T22:48:24.870Z,34.57
2018-05-16T22:50:53.375Z,41.97
2018-05-16T22:53:22.329Z,31.17
2018-05-16T22:55:51.603Z,37.17
2018-05-16T22:58:20.135Z,25.30
2018-05-16T23:00:49.863Z,35.23
2018-05-16T23:03:18.234Z,39.93
2018-05-16T23:05:46.842Z,25.57
2018-05-16T23:08:16.929Z,30.17
2018-05-16T23:10:45.223Z,23.57
2018-05-16T23:13:13.530Z,22.47
2018-05-16T23:15:42.154Z,26.40
2018-05-16T23:18:12.248Z,26.97
2018-05-16T23:20:40.566Z,34.47
2018-05-16T23:23:09.410Z,33.77
2018-05-16T23:25:37.801Z,28.20
2018-05-16T23:28:06.651Z,29.43
2018-05-16T23:30:34.975Z,33.17
2018-05-16T23:33:06.265Z,21.90
2018-05-16T23:35:35.277Z,32.63
2018-05-16T23:38:03.608Z,41.30
2018-05-16T23:40:33.054Z,30.00
2018-05-16T23:43:01.558Z,34.30
2018-05-16T23:45:29.855Z,32.30
2018-05-16T23:47:58.387Z,40.07
2018-05-16T23:50:26.826Z,31.23
2018-05-16T23:52:55.128Z,29.77
2018-05-16T23:55:24.287Z,19.07
2018-05-16T23:57:52.678Z,39.20
